createdAt,value
2019-01-24T00:01:05.513Z,60.90
2019-01-24T00:03:34.798Z,55.93
2019-01-24T00:06:04.083Z,58.30
2019-01-24T00:08:33.423Z,58.43
2019-01-24T00:11:03.093Z,61.00
2019-01-24T00:13:32.757Z,58.20
2019-01-24T00:16:02.378Z,57.27
2019-01-24T00:18:32.081Z,59.23
2019-01-24T00:21:01.905Z,61.47
2019-01-24T00:23:31.471Z,56.93
2019-01-24T00:26:01.199Z,63.70
2019-01-24T00:28:31.131Z,64.53
2019-01-24T00:31:00.504Z,62.77
2019-01-24T00:33:29.700Z,60.97
2019-01-24T00:35:59.244Z,59.93
2019-01-24T00:38:28.529Z,62.13
2019-01-24T00:40:57.834Z,62.10
2019-01-24T00:43:27.669Z,61.53
2019-01-24T00:45:57.429Z,60.03
2019-01-24T00:48:27.098Z,59.53
2019-01-24T00:50:56.381Z,64.13
2019-01-24T00:53:26.059Z,62.13
2019-01-24T00:55:56.328Z,66.23
2019-01-24T00:58:25.595Z,64.50
2019-01-24T01:00:55.125Z,61.67
2019-01-24T01:03:24.470Z,61.70
2019-01-24T01:05:53.665Z,67.67
2019-01-24T01:08:22.958Z,59.87
2019-01-24T01:10:52.173Z,59.80
2019-01-24T01:13:21.856Z,60.40
2019-01-24T01:15:51.261Z,61.10
2019-01-24T01:18:20.948Z,53.83
2019-01-24T01:20:50.574Z,58.43
2019-01-24T01:23:20.310Z,57.13
2019-01-24T01:25:49.990Z,52.60
2019-01-24T01:28:19.702Z,58.87
2019-01-24T01:30:49.315Z,58.27
2019-01-24T01:33:18.993Z,57.77
2019-01-24T01:35:48.380Z,55.17
2019-01-24T01:38:17.770Z,53.23
2019-01-24T01:40:47.123Z,56.80
2019-01-24T01:43:16.472Z,54.83
2019-01-24T01:45:45.777Z,55.00
2019-01-24T01:48:15.360Z,60.10
2019-01-24T01:50:48.035Z,54.90
2019-01-24T01:53:17.286Z,57.87
2019-01-24T01:55:46.664Z,55.23
2019-01-24T01:58:15.968Z,56.60
2019-01-24T02:00:45.549Z,60.87
2019-01-24T02:03:14.904Z,57.57
2019-01-24T02:05:44.269Z,56.47
2019-01-24T02:08:13.923Z,57.37
2019-01-24T02:10:53.305Z,57.23
2019-01-24T02:13:30.082Z,57.37
2019-01-24T02:15:59.447Z,58.13
2019-01-24T02:18:29.093Z,57.27
2019-01-24T02:20:58.435Z,57.43
2019-01-24T02:23:27.725Z,59.17
2019-01-24T02:25:57.127Z,56.47
2019-01-24T02:28:26.537Z,56.40
2019-01-24T02:30:55.917Z,59.50
2019-01-24T02:33:25.229Z,51.73
2019-01-24T02:35:54.597Z,56.13
2019-01-24T02:38:23.815Z,58.87
2019-01-24T02:40:53.230Z,56.20
2019-01-24T02:43:22.942Z,51.40
2019-01-24T02:45:52.228Z,56.83
2019-01-24T02:48:21.630Z,55.63
2019-01-24T02:50:51.649Z,55.80
2019-01-24T02:53:21.368Z,57.10
2019-01-24T02:55:50.778Z,55.87
2019-01-24T02:58:20.129Z,51.37
2019-01-24T03:00:49.781Z,55.33
2019-01-24T03:03:19.539Z,55.87
2019-01-24T03:05:49.147Z,55.53
2019-01-24T03:08:18.604Z,50.80
2019-01-24T03:10:47.871Z,52.93
2019-01-24T03:13:17.575Z,54.60
2019-01-24T03:15:47.209Z,51.23
2019-01-24T03:18:16.845Z,52.77
2019-01-24T03:20:50.484Z,57.90
2019-01-24T03:23:19.828Z,57.97
2019-01-24T03:25:49.566Z,56.33
2019-01-24T03:28:18.893Z,54.30
2019-01-24T03:30:48.292Z,54.30
2019-01-24T03:33:17.663Z,55.87
2019-01-24T03:35:46.934Z,53.77
2019-01-24T03:38:16.354Z,53.37
2019-01-24T03:40:46.027Z,55.93
2019-01-24T03:43:15.325Z,54.17
2019-01-24T03:45:44.644Z,58.70
2019-01-24T03:48:13.924Z,54.73
2019-01-24T03:50:43.110Z,55.00
2019-01-24T03:53:12.798Z,58.60
2019-01-24T03:55:42.198Z,56.80
2019-01-24T03:58:11.638Z,55.53
2019-01-24T04:00:40.972Z,59.03
2019-01-24T04:03:12.152Z,56.70
2019-01-24T04:05:41.554Z,57.67
2019-01-24T04:08:20.052Z,59.10
2019-01-24T04:10:49.308Z,55.40
2019-01-24T04:13:19.016Z,58.87
2019-01-24T04:15:48.590Z,56.60
2019-01-24T04:18:18.710Z,54.10
2019-01-24T04:20:48.601Z,52.40
2019-01-24T04:23:17.902Z,59.00
2019-01-24T04:25:47.538Z,57.57
2019-01-24T04:28:16.932Z,56.43
2019-01-24T04:30:46.202Z,56.97
2019-01-24T04:33:15.856Z,58.93
2019-01-24T04:35:45.242Z,54.50
2019-01-24T04:38:14.998Z,56.80
2019-01-24T04:40:44.357Z,56.13
2019-01-24T04:43:16.420Z,56.83
2019-01-24T04:45:45.721Z,54.03
2019-01-24T04:48:15.086Z,59.33
2019-01-24T04:50:44.418Z,60.20
2019-01-24T04:53:14.066Z,63.03
2019-01-24T04:55:43.420Z,61.87
2019-01-24T04:58:12.754Z,60.63
2019-01-24T05:00:42.122Z,59.87
2019-01-24T05:03:11.343Z,62.60
2019-01-24T05:05:40.664Z,58.37
2019-01-24T05:08:10.021Z,57.77
2019-01-24T05:10:39.318Z,59.60
2019-01-24T05:13:08.654Z,61.40
2019-01-24T05:15:38.381Z,57.57
2019-01-24T05:18:07.726Z,56.87
2019-01-24T05:20:37.395Z,61.43
2019-01-24T05:23:09.538Z,61.03
2019-01-24T05:25:39.109Z,60.50
2019-01-24T05:28:08.434Z,60.73
2019-01-24T05:30:37.812Z,64.83
2019-01-24T05:33:10.469Z,62.00
2019-01-24T05:35:39.871Z,58.93
2019-01-24T05:38:09.097Z,54.97
2019-01-24T05:40:38.416Z,60.43
2019-01-24T05:43:07.785Z,60.73
2019-01-24T05:45:37.091Z,61.37
2019-01-24T05:48:06.972Z,60.73
2019-01-24T05:50:36.357Z,53.67
2019-01-24T05:53:05.713Z,54.93
2019-01-24T05:55:35.002Z,54.20
2019-01-24T05:58:04.330Z,54.23
2019-01-24T06:00:39.079Z,52.00
2019-01-24T06:03:08.785Z,56.30
2019-01-24T06:05:41.863Z,50.40
2019-01-24T06:08:11.360Z,50.77
2019-01-24T06:10:40.583Z,47.57
2019-01-24T06:13:09.962Z,45.60
2019-01-24T06:15:39.251Z,51.13
2019-01-24T06:18:18.289Z,50.10
2019-01-24T06:20:47.712Z,51.27
2019-01-24T06:23:17.093Z,49.67
2019-01-24T06:25:46.417Z,54.37
2019-01-24T06:28:15.936Z,53.80
2019-01-24T06:30:45.328Z,55.80
2019-01-24T06:33:15.104Z,51.60
2019-01-24T06:35:48.661Z,56.93
2019-01-24T06:38:15.620Z,56.77
2019-01-24T06:40:45.353Z,61.90
2019-01-24T06:43:14.745Z,57.37
2019-01-24T06:45:44.112Z,58.70
2019-01-24T06:48:13.486Z,55.27
2019-01-24T06:50:42.877Z,56.70
2019-01-24T06:53:12.396Z,61.40
2019-01-24T06:55:41.768Z,60.27
2019-01-24T06:58:11.105Z,61.63
2019-01-24T07:00:43.045Z,59.00
2019-01-24T07:03:13.348Z,58.30
2019-01-24T07:05:42.598Z,57.37
2019-01-24T07:08:11.974Z,60.60
2019-01-24T07:10:41.332Z,60.60
2019-01-24T07:13:10.718Z,56.80
2019-01-24T07:15:40.090Z,54.03
2019-01-24T07:18:09.593Z,56.43
2019-01-24T07:20:38.904Z,58.37
2019-01-24T07:23:08.883Z,54.70
2019-01-24T07:25:38.450Z,58.07
2019-01-24T07:28:08.317Z,59.73
2019-01-24T07:30:38.208Z,59.77
2019-01-24T07:33:09.061Z,58.10
2019-01-24T07:35:38.378Z,54.73
2019-01-24T07:38:08.169Z,57.23
2019-01-24T07:40:37.456Z,55.50
2019-01-24T07:43:07.102Z,52.83
2019-01-24T07:45:40.834Z,56.50
2019-01-24T07:48:13.687Z,55.30
2019-01-24T07:50:42.936Z,54.77
2019-01-24T07:53:12.457Z,58.60
2019-01-24T07:55:42.527Z,57.90
2019-01-24T07:58:12.052Z,55.37
2019-01-24T08:00:41.435Z,58.77
2019-01-24T08:03:10.922Z,54.90
2019-01-24T08:05:40.518Z,60.57
2019-01-24T08:08:09.818Z,57.10
2019-01-24T08:10:39.198Z,54.40
2019-01-24T08:13:08.782Z,51.67
2019-01-24T08:15:38.352Z,56.17
2019-01-24T08:18:07.952Z,47.67
2019-01-24T08:20:37.624Z,50.87
2019-01-24T08:23:07.053Z,50.70
2019-01-24T08:25:36.812Z,48.20
2019-01-24T08:28:06.206Z,56.47
2019-01-24T08:30:35.570Z,52.37
2019-01-24T08:33:05.149Z,51.80
2019-01-24T08:35:34.377Z,46.73
2019-01-24T08:38:03.769Z,48.77
2019-01-24T08:40:33.447Z,47.83
2019-01-24T08:43:03.044Z,50.43
2019-01-24T08:45:32.330Z,51.00
2019-01-24T08:48:01.717Z,50.60
2019-01-24T08:50:31.084Z,52.63
2019-01-24T08:53:00.453Z,51.60
2019-01-24T08:55:35.745Z,51.67
2019-01-24T08:58:06.230Z,52.13
2019-01-24T09:00:35.619Z,47.90
2019-01-24T09:03:05.625Z,50.67
2019-01-24T09:05:35.185Z,52.47
2019-01-24T09:08:05.218Z,50.63
2019-01-24T09:10:36.445Z,49.07
2019-01-24T09:13:06.914Z,48.23
2019-01-24T09:15:36.946Z,50.87
2019-01-24T09:18:07.785Z,49.47
2019-01-24T09:20:37.181Z,50.90
2019-01-24T09:23:07.369Z,50.27
2019-01-24T09:25:36.809Z,49.47
2019-01-24T09:28:06.165Z,50.30
2019-01-24T09:30:35.956Z,51.27
2019-01-24T09:33:05.389Z,47.53
2019-01-24T09:35:35.014Z,50.83
2019-01-24T09:38:04.522Z,50.80
2019-01-24T09:40:34.457Z,51.53
2019-01-24T09:43:04.375Z,49.83
2019-01-24T09:45:33.757Z,49.47
2019-01-24T09:48:04.779Z,52.57
2019-01-24T09:50:34.083Z,50.90
2019-01-24T09:53:03.477Z,52.67
2019-01-24T09:55:33.220Z,48.43
2019-01-24T09:58:02.606Z,50.87
2019-01-24T10:00:33.998Z,50.50
2019-01-24T10:03:03.860Z,49.00
2019-01-24T10:05:33.641Z,49.03
2019-01-24T10:08:03.828Z,49.30
2019-01-24T10:10:33.285Z,48.17
2019-01-24T10:13:02.710Z,54.87
2019-01-24T10:15:32.409Z,50.97
2019-01-24T10:18:02.118Z,52.40
2019-01-24T10:20:31.514Z,53.60
2019-01-24T10:23:01.280Z,50.47
2019-01-24T10:25:38.567Z,49.30
2019-01-24T10:28:08.992Z,48.97
2019-01-24T10:30:42.696Z,50.40
2019-01-24T10:33:09.465Z,50.77
2019-01-24T10:35:38.904Z,47.33
2019-01-24T10:38:08.333Z,44.73
2019-01-24T10:40:37.692Z,43.63
2019-01-24T10:43:07.434Z,45.00
2019-01-24T10:45:37.288Z,45.03
2019-01-24T10:48:07.425Z,43.80
2019-01-24T10:50:36.950Z,45.20
2019-01-24T10:53:06.876Z,44.53
2019-01-24T10:55:36.376Z,47.23
2019-01-24T10:58:06.962Z,47.53
2019-01-24T11:00:41.482Z,44.57
2019-01-24T11:03:16.038Z,44.67
2019-01-24T11:05:45.541Z,46.97
2019-01-24T11:08:15.333Z,48.53
2019-01-24T11:10:44.632Z,52.80
2019-01-24T11:13:14.516Z,49.80
2019-01-24T11:15:44.036Z,51.93
2019-01-24T11:18:13.729Z,49.07
2019-01-24T11:20:42.984Z,48.20
2019-01-24T11:23:12.359Z,52.17
2019-01-24T11:25:41.724Z,48.90
2019-01-24T11:28:11.136Z,48.47
2019-01-24T11:30:40.561Z,49.97
2019-01-24T11:33:10.274Z,46.70
2019-01-24T11:35:40.996Z,54.83
2019-01-24T11:38:10.632Z,51.63
2019-01-24T11:40:39.982Z,50.60
2019-01-24T11:43:09.591Z,49.67
2019-01-24T11:45:41.416Z,52.80
2019-01-24T11:48:10.745Z,53.37
2019-01-24T11:50:40.483Z,52.70
2019-01-24T11:53:09.944Z,51.73
2019-01-24T11:55:39.149Z,55.13
2019-01-24T11:58:09.128Z,51.67
2019-01-24T12:01:05.356Z,51.23
2019-01-24T12:03:34.725Z,51.57
2019-01-24T12:06:04.101Z,53.90
2019-01-24T12:08:33.501Z,53.10
2019-01-24T12:11:02.781Z,55.77
2019-01-24T12:13:32.128Z,53.20
2019-01-24T12:16:01.413Z,54.27
2019-01-24T12:18:31.155Z,54.97
2019-01-24T12:21:00.499Z,53.63
2019-01-24T12:23:29.787Z,52.43
2019-01-24T12:25:59.374Z,54.93
2019-01-24T12:28:29.268Z,54.40
2019-01-24T12:30:58.953Z,53.87
2019-01-24T12:33:28.615Z,58.17
2019-01-24T12:35:57.911Z,52.93
2019-01-24T12:38:27.309Z,52.70
2019-01-24T12:40:57.053Z,50.83
2019-01-24T12:43:26.409Z,48.90
2019-01-24T12:45:56.364Z,51.77
2019-01-24T12:48:25.894Z,54.67
2019-01-24T12:50:55.849Z,49.80
2019-01-24T12:53:25.145Z,53.23
2019-01-24T12:55:54.677Z,50.87
2019-01-24T12:58:24.330Z,48.57
2019-01-24T13:00:53.918Z,48.87
2019-01-24T13:03:23.329Z,48.67
2019-01-24T13:05:53.070Z,50.47
2019-01-24T13:08:22.469Z,51.07
2019-01-24T13:10:52.334Z,50.57
2019-01-24T13:13:22.037Z,49.07
2019-01-24T13:15:51.852Z,46.83
2019-01-24T13:18:23.916Z,48.37
2019-01-24T13:20:53.303Z,54.17
2019-01-24T13:23:23.223Z,49.63
2019-01-24T13:25:52.866Z,52.37
2019-01-24T13:28:22.178Z,53.23
2019-01-24T13:30:51.563Z,50.93
2019-01-24T13:33:20.995Z,54.23
2019-01-24T13:35:50.370Z,49.67
2019-01-24T13:38:19.734Z,53.53
2019-01-24T13:40:48.990Z,52.33
2019-01-24T13:43:18.531Z,53.47
2019-01-24T13:45:51.474Z,55.53
2019-01-24T13:48:21.271Z,51.03
2019-01-24T13:50:53.175Z,50.83
2019-01-24T13:53:22.944Z,57.87
2019-01-24T13:55:54.292Z,53.50
2019-01-24T13:58:23.766Z,50.00
2019-01-24T14:00:53.506Z,52.37
2019-01-24T14:03:27.857Z,51.97
2019-01-24T14:05:57.678Z,54.23
2019-01-24T14:08:27.242Z,50.97
2019-01-24T14:10:57.987Z,52.87
2019-01-24T14:13:27.518Z,54.97
2019-01-24T14:15:57.191Z,50.47
2019-01-24T14:18:26.560Z,54.30
2019-01-24T14:20:59.282Z,55.63
2019-01-24T14:23:28.642Z,53.87
2019-01-24T14:25:57.959Z,56.00
2019-01-24T14:28:28.249Z,57.97
2019-01-24T14:30:57.587Z,54.27
2019-01-24T14:33:29.502Z,53.23
2019-01-24T14:35:58.986Z,55.97
2019-01-24T14:38:28.795Z,54.20
2019-01-24T14:40:58.326Z,50.97
2019-01-24T14:43:27.712Z,54.07
2019-01-24T14:45:57.485Z,54.97
2019-01-24T14:48:26.822Z,53.87
2019-01-24T14:50:56.197Z,52.83
2019-01-24T14:53:25.582Z,60.50
2019-01-24T14:55:55.354Z,53.93
2019-01-24T14:58:24.786Z,56.83
2019-01-24T15:01:19.056Z,57.23
2019-01-24T15:03:48.710Z,53.07
2019-01-24T15:06:18.541Z,54.73
2019-01-24T15:08:47.949Z,58.07
2019-01-24T15:11:20.598Z,54.07
2019-01-24T15:13:52.548Z,53.30
2019-01-24T15:16:21.965Z,57.57
2019-01-24T15:18:54.725Z,55.40
2019-01-24T15:21:24.234Z,53.47
2019-01-24T15:23:54.917Z,52.47
2019-01-24T15:26:24.207Z,56.37
2019-01-24T15:28:53.584Z,57.20
2019-01-24T15:31:22.961Z,56.77
2019-01-24T15:33:52.975Z,54.67
2019-01-24T15:36:22.418Z,55.07
2019-01-24T15:38:51.853Z,55.33
2019-01-24T15:41:21.201Z,59.83
2019-01-24T15:43:50.523Z,60.47
2019-01-24T15:46:19.942Z,60.47
2019-01-24T15:48:49.306Z,56.03
2019-01-24T15:51:19.145Z,61.80
2019-01-24T15:53:48.579Z,63.73
2019-01-24T15:56:18.252Z,56.87
2019-01-24T15:58:48.016Z,58.60
2019-01-24T16:01:17.599Z,61.90
2019-01-24T16:03:47.233Z,60.47
2019-01-24T16:06:16.515Z,58.63
2019-01-24T16:08:46.452Z,65.83
2019-01-24T16:11:16.097Z,58.10
2019-01-24T16:13:45.747Z,59.50
2019-01-24T16:16:15.551Z,62.90
2019-01-24T16:18:44.920Z,61.33
2019-01-24T16:21:14.502Z,64.27
2019-01-24T16:23:43.872Z,66.23
2019-01-24T16:26:13.567Z,64.47
2019-01-24T16:28:43.098Z,64.70
2019-01-24T16:31:12.583Z,64.27
2019-01-24T16:33:42.603Z,62.83
2019-01-24T16:36:11.944Z,64.23
2019-01-24T16:38:41.517Z,67.90
2019-01-24T16:41:11.198Z,65.73
2019-01-24T16:43:40.859Z,67.17
2019-01-24T16:46:10.772Z,65.40
2019-01-24T16:48:40.079Z,62.43
2019-01-24T16:51:10.228Z,64.77
2019-01-24T16:53:42.006Z,62.03
2019-01-24T16:56:11.041Z,65.13
2019-01-24T16:58:40.718Z,63.83
2019-01-24T17:01:19.550Z,64.83
2019-01-24T17:03:49.043Z,62.60
2019-01-24T17:06:18.467Z,68.70
2019-01-24T17:08:48.806Z,66.80
2019-01-24T17:11:18.117Z,66.80
2019-01-24T17:14:06.701Z,62.37
2019-01-24T17:17:15.502Z,65.47
2019-01-24T17:19:45.155Z,66.30
2019-01-24T17:22:17.167Z,74.43
2019-01-24T17:24:46.824Z,72.07
2019-01-24T17:27:19.251Z,76.37
2019-01-24T17:29:48.536Z,75.20
2019-01-24T17:32:17.926Z,70.00
2019-01-24T17:34:47.223Z,74.53
2019-01-24T17:37:16.649Z,70.07
2019-01-24T17:39:46.468Z,70.47
2019-01-24T17:42:15.792Z,70.27
2019-01-24T17:44:45.071Z,68.73
2019-01-24T17:47:16.842Z,65.33
2019-01-24T17:49:46.512Z,62.57
2019-01-24T17:52:15.960Z,64.43
2019-01-24T17:54:45.556Z,69.90
2019-01-24T17:57:14.951Z,65.87
2019-01-24T17:59:44.588Z,66.60
2019-01-24T18:02:14.230Z,68.03
2019-01-24T18:04:43.814Z,61.77
2019-01-24T18:07:13.577Z,62.50
2019-01-24T18:09:42.879Z,60.73
2019-01-24T18:12:12.834Z,64.90
2019-01-24T18:14:44.776Z,65.37
2019-01-24T18:17:14.076Z,58.30
2019-01-24T18:19:43.486Z,69.77
2019-01-24T18:22:13.284Z,73.33
2019-01-24T18:24:42.594Z,69.77
2019-01-24T18:27:11.912Z,69.07
2019-01-24T18:29:42.806Z,67.90
2019-01-24T18:32:12.159Z,67.30
2019-01-24T18:34:41.549Z,76.93
2019-01-24T18:37:10.812Z,64.30
2019-01-24T18:39:40.166Z,61.93
2019-01-24T18:42:09.920Z,66.00
2019-01-24T18:44:39.760Z,69.37
2019-01-24T18:47:09.117Z,66.87
2019-01-24T18:49:39.023Z,73.10
2019-01-24T18:52:08.293Z,71.57
2019-01-24T18:54:40.026Z,71.50
2019-01-24T18:57:08.816Z,71.17
2019-01-24T18:59:38.147Z,72.27
2019-01-24T19:02:08.051Z,74.20
2019-01-24T19:04:37.365Z,76.47
2019-01-24T19:07:06.638Z,79.67
2019-01-24T19:09:36.253Z,69.23
2019-01-24T19:12:08.375Z,69.37
2019-01-24T19:14:37.724Z,74.50
2019-01-24T19:17:06.948Z,77.93
2019-01-24T19:19:36.337Z,82.77
2019-01-24T19:22:05.779Z,74.17
2019-01-24T19:24:35.206Z,69.57
2019-01-24T19:27:07.905Z,76.83
2019-01-24T19:29:37.557Z,75.93
2019-01-24T19:32:06.923Z,79.80
2019-01-24T19:34:36.646Z,68.73
2019-01-24T19:37:06.065Z,76.43
2019-01-24T19:39:35.464Z,73.33
2019-01-24T19:42:05.187Z,98.80
2019-01-24T19:44:34.558Z,85.10
2019-01-24T19:47:04.161Z,74.27
2019-01-24T19:49:33.466Z,76.07
2019-01-24T19:52:03.464Z,69.27
2019-01-24T19:54:32.861Z,75.53
2019-01-24T19:57:02.542Z,66.03
2019-01-24T19:59:31.805Z,71.83
2019-01-24T20:02:01.105Z,70.33
2019-01-24T20:04:30.804Z,73.40
2019-01-24T20:07:06.209Z,70.83
2019-01-24T20:09:38.535Z,73.13
2019-01-24T20:12:07.928Z,63.83
2019-01-24T20:14:37.216Z,72.03
2019-01-24T20:17:06.485Z,69.97
2019-01-24T20:19:35.913Z,69.20
2019-01-24T20:22:08.176Z,74.53
2019-01-24T20:24:37.878Z,73.03
2019-01-24T20:27:07.281Z,67.50
2019-01-24T20:29:39.487Z,69.47
2019-01-24T20:32:10.689Z,66.97
2019-01-24T20:34:40.319Z,71.90
2019-01-24T20:37:13.413Z,67.07
2019-01-24T20:39:42.796Z,67.00
2019-01-24T20:42:12.482Z,60.43
2019-01-24T20:44:41.904Z,67.10
2019-01-24T20:47:11.636Z,76.63
2019-01-24T20:49:40.967Z,68.23
2019-01-24T20:52:10.401Z,76.87
2019-01-24T20:54:39.988Z,69.97
2019-01-24T20:57:09.660Z,77.27
2019-01-24T20:59:38.980Z,79.17
2019-01-24T21:02:08.607Z,72.87
2019-01-24T21:04:38.527Z,71.17
2019-01-24T21:07:08.009Z,68.27
2019-01-24T21:09:37.364Z,74.20
2019-01-24T21:12:06.814Z,68.43
2019-01-24T21:14:38.143Z,68.00
2019-01-24T21:17:07.603Z,67.90
2019-01-24T21:19:37.301Z,67.70
2019-01-24T21:22:07.324Z,67.23
2019-01-24T21:24:36.917Z,70.63
2019-01-24T21:27:06.610Z,68.17
2019-01-24T21:29:36.097Z,69.73
2019-01-24T21:32:05.466Z,67.83
2019-01-24T21:34:34.803Z,73.37
2019-01-24T21:37:04.766Z,72.57
2019-01-24T21:39:36.820Z,72.43
2019-01-24T21:42:06.323Z,67.87
2019-01-24T21:44:37.149Z,71.10
2019-01-24T21:47:06.688Z,73.27
2019-01-24T21:49:38.834Z,71.33
2019-01-24T21:52:08.280Z,73.93
2019-01-24T21:54:39.450Z,74.97
2019-01-24T21:57:08.941Z,74.10
2019-01-24T21:59:38.349Z,76.60
2019-01-24T22:02:07.976Z,69.43
2019-01-24T22:04:37.466Z,70.13
2019-01-24T22:07:07.072Z,74.00
2019-01-24T22:09:36.532Z,76.03
2019-01-24T22:12:06.393Z,71.83
2019-01-24T22:14:36.088Z,72.10
2019-01-24T22:17:05.726Z,73.40
2019-01-24T22:19:35.128Z,72.40
2019-01-24T22:22:04.705Z,68.87
2019-01-24T22:24:34.368Z,68.67
2019-01-24T22:27:03.691Z,67.20
2019-01-24T22:29:33.356Z,69.07
2019-01-24T22:32:02.792Z,70.47
2019-01-24T22:34:32.103Z,74.67
2019-01-24T22:37:02.260Z,76.03
2019-01-24T22:39:36.570Z,71.23
2019-01-24T22:42:02.599Z,70.13
2019-01-24T22:44:32.246Z,69.23
2019-01-24T22:47:01.707Z,74.90
2019-01-24T22:49:31.389Z,73.93
2019-01-24T22:52:00.795Z,70.23
2019-01-24T22:54:30.147Z,71.70
2019-01-24T22:56:59.771Z,68.00
2019-01-24T22:59:29.109Z,66.50
2019-01-24T23:02:25.424Z,70.83
2019-01-24T23:04:54.815Z,72.43
2019-01-24T23:07:24.202Z,73.90
2019-01-24T23:09:53.684Z,78.13
2019-01-24T23:12:23.035Z,71.80
2019-01-24T23:14:52.452Z,75.63
2019-01-24T23:17:22.160Z,66.73
2019-01-24T23:19:51.571Z,69.80
2019-01-24T23:22:20.899Z,64.33
2019-01-24T23:24:50.341Z,69.10
2019-01-24T23:27:19.721Z,72.00
2019-01-24T23:29:49.187Z,70.07
2019-01-24T23:32:18.877Z,76.63
2019-01-24T23:34:48.579Z,69.97
2019-01-24T23:37:17.967Z,75.40
2019-01-24T23:39:51.698Z,73.03
2019-01-24T23:42:18.933Z,70.67
2019-01-24T23:44:48.314Z,72.13
2019-01-24T23:47:17.733Z,72.53
2019-01-24T23:49:47.125Z,71.73
2019-01-24T23:52:16.435Z,72.07
2019-01-24T23:54:46.154Z,70.63
2019-01-24T23:57:15.567Z,71.03
2019-01-24T23:59:45.227Z,70.10
